sensor_id;sensor_type;location;lat;lon;timestamp;P1;durP1;ratioP1;P2;durP2;ratioP2
23802;SDS011;12082;51.786;6.018;2022-12-07T00:01:34;81.63;;;75.73;;
23802;SDS011;12082;51.786;6.018;2022-12-07T00:04:02;81.93;;;75.60;;
23802;SDS011;12082;51.786;6.018;2022-12-07T00:08:57;77.67;;;71.60;;
23802;SDS011;12082;51.786;6.018;2022-12-07T00:11:23;79.00;;;73.33;;
23802;SDS011;12082;51.786;6.018;2022-12-07T00:13:54;76.10;;;70.80;;
23802;SDS011;12082;51.786;6.018;2022-12-07T00:16:20;76.43;;;71.23;;
23802;SDS011;12082;51.786;6.018;2022-12-07T00:18:47;77.87;;;72.17;;
23802;SDS011;12082;51.786;6.018;2022-12-07T00:21:14;73.13;;;68.13;;
23802;SDS011;12082;51.786;6.018;2022-12-07T00:23:40;74.90;;;70.17;;
23802;SDS011;12082;51.786;6.018;2022-12-07T00:26:07;72.00;;;67.47;;
23802;SDS011;12082;51.786;6.018;2022-12-07T00:28:33;76.13;;;71.13;;
23802;SDS011;12082;51.786;6.018;2022-12-07T00:31:04;75.60;;;70.37;;
23802;SDS011;12082;51.786;6.018;2022-12-07T00:33:31;72.03;;;67.13;;
23802;SDS011;12082;51.786;6.018;2022-12-07T00:35:57;73.00;;;68.03;;
23802;SDS011;12082;51.786;6.018;2022-12-07T00:38:24;75.60;;;70.50;;
23802;SDS011;12082;51.786;6.018;2022-12-07T00:40:57;71.00;;;65.57;;
23802;SDS011;12082;51.786;6.018;2022-12-07T00:43:23;68.93;;;63.90;;
23802;SDS011;12082;51.786;6.018;2022-12-07T00:45:49;69.53;;;64.63;;
23802;SDS011;12082;51.786;6.018;2022-12-07T00:48:15;73.33;;;67.93;;
23802;SDS011;12082;51.786;6.018;2022-12-07T00:50:41;72.43;;;67.10;;
23802;SDS011;12082;51.786;6.018;2022-12-07T00:53:07;71.30;;;66.10;;
23802;SDS011;12082;51.786;6.018;2022-12-07T00:55:34;68.20;;;63.40;;
23802;SDS011;12082;51.786;6.018;2022-12-07T00:57:59;69.70;;;64.47;;
23802;SDS011;12082;51.786;6.018;2022-12-07T01:00:25;72.63;;;67.33;;
23802;SDS011;12082;51.786;6.018;2022-12-07T01:02:52;69.37;;;64.03;;
23802;SDS011;12082;51.786;6.018;2022-12-07T01:05:18;64.97;;;60.07;;
23802;SDS011;12082;51.786;6.018;2022-12-07T01:07:44;70.47;;;65.20;;
23802;SDS011;12082;51.786;6.018;2022-12-07T01:10:11;65.40;;;60.47;;
23802;SDS011;12082;51.786;6.018;2022-12-07T01:12:37;68.40;;;62.60;;
23802;SDS011;12082;51.786;6.018;2022-12-07T01:15:04;64.93;;;59.77;;
23802;SDS011;12082;51.786;6.018;2022-12-07T01:17:30;66.17;;;60.57;;
23802;SDS011;12082;51.786;6.018;2022-12-07T01:19:56;63.47;;;58.07;;
23802;SDS011;12082;51.786;6.018;2022-12-07T01:22:22;65.10;;;59.70;;
23802;SDS011;12082;51.786;6.018;2022-12-07T01:24:48;64.33;;;58.73;;
23802;SDS011;12082;51.786;6.018;2022-12-07T01:27:14;67.20;;;61.40;;
23802;SDS011;12082;51.786;6.018;2022-12-07T01:29:40;67.47;;;62.27;;
23802;SDS011;12082;51.786;6.018;2022-12-07T01:32:06;70.90;;;64.67;;
23802;SDS011;12082;51.786;6.018;2022-12-07T01:34:32;68.30;;;62.73;;
23802;SDS011;12082;51.786;6.018;2022-12-07T01:36:58;68.77;;;63.20;;
23802;SDS011;12082;51.786;6.018;2022-12-07T01:39:24;66.80;;;61.53;;
23802;SDS011;12082;51.786;6.018;2022-12-07T01:41:50;69.40;;;63.63;;
23802;SDS011;12082;51.786;6.018;2022-12-07T01:46:46;67.13;;;61.47;;
23802;SDS011;12082;51.786;6.018;2022-12-07T01:49:16;67.77;;;61.80;;
23802;SDS011;12082;51.786;6.018;2022-12-07T01:51:43;67.67;;;61.83;;
23802;SDS011;12082;51.786;6.018;2022-12-07T01:54:10;69.40;;;63.10;;
23802;SDS011;12082;51.786;6.018;2022-12-07T01:56:37;70.07;;;63.73;;
23802;SDS011;12082;51.786;6.018;2022-12-07T01:59:04;65.07;;;59.17;;
23802;SDS011;12082;51.786;6.018;2022-12-07T02:01:30;67.07;;;61.13;;
23802;SDS011;12082;51.786;6.018;2022-12-07T02:03:56;65.53;;;59.80;;
23802;SDS011;12082;51.786;6.018;2022-12-07T02:06:23;66.10;;;60.57;;
23802;SDS011;12082;51.786;6.018;2022-12-07T02:08:50;64.47;;;58.70;;
23802;SDS011;12082;51.786;6.018;2022-12-07T02:11:16;65.37;;;59.57;;
23802;SDS011;12082;51.786;6.018;2022-12-07T02:13:42;69.13;;;62.77;;
23802;SDS011;12082;51.786;6.018;2022-12-07T02:18:44;66.97;;;60.80;;
23802;SDS011;12082;51.786;6.018;2022-12-07T02:21:27;64.57;;;58.40;;
23802;SDS011;12082;51.786;6.018;2022-12-07T02:24:39;64.97;;;59.17;;
23802;SDS011;12082;51.786;6.018;2022-12-07T02:30:03;62.13;;;55.97;;
23802;SDS011;12082;51.786;6.018;2022-12-07T02:32:26;64.10;;;57.80;;
23802;SDS011;12082;51.786;6.018;2022-12-07T02:40:09;66.30;;;60.40;;
23802;SDS011;12082;51.786;6.018;2022-12-07T02:42:37;67.17;;;60.80;;
23802;SDS011;12082;51.786;6.018;2022-12-07T02:45:04;67.97;;;61.10;;
23802;SDS011;12082;51.786;6.018;2022-12-07T02:47:31;64.90;;;58.70;;
23802;SDS011;12082;51.786;6.018;2022-12-07T02:49:59;68.30;;;61.80;;
23802;SDS011;12082;51.786;6.018;2022-12-07T02:52:25;65.17;;;59.47;;
23802;SDS011;12082;51.786;6.018;2022-12-07T02:54:51;65.23;;;59.57;;
23802;SDS011;12082;51.786;6.018;2022-12-07T03:00:03;63.93;;;58.43;;
23802;SDS011;12082;51.786;6.018;2022-12-07T03:05:21;62.30;;;56.90;;
23802;SDS011;12082;51.786;6.018;2022-12-07T03:10:19;64.47;;;59.23;;
23802;SDS011;12082;51.786;6.018;2022-12-07T03:13:05;60.80;;;55.73;;
23802;SDS011;12082;51.786;6.018;2022-12-07T03:18:07;62.97;;;57.07;;
23802;SDS011;12082;51.786;6.018;2022-12-07T03:20:35;61.17;;;55.40;;
23802;SDS011;12082;51.786;6.018;2022-12-07T03:23:03;59.40;;;54.37;;
23802;SDS011;12082;51.786;6.018;2022-12-07T03:25:30;56.77;;;51.83;;
23802;SDS011;12082;51.786;6.018;2022-12-07T03:28:00;60.00;;;54.27;;
23802;SDS011;12082;51.786;6.018;2022-12-07T03:30:28;59.37;;;54.07;;
23802;SDS011;12082;51.786;6.018;2022-12-07T03:33:12;59.80;;;54.93;;
23802;SDS011;12082;51.786;6.018;2022-12-07T03:35:40;59.83;;;54.93;;
23802;SDS011;12082;51.786;6.018;2022-12-07T03:41:08;55.77;;;51.17;;
23802;SDS011;12082;51.786;6.018;2022-12-07T03:43:35;54.40;;;50.20;;
23802;SDS011;12082;51.786;6.018;2022-12-07T03:46:13;57.47;;;53.10;;
23802;SDS011;12082;51.786;6.018;2022-12-07T03:51:34;58.43;;;53.00;;
23802;SDS011;12082;51.786;6.018;2022-12-07T03:54:11;55.33;;;51.20;;
23802;SDS011;12082;51.786;6.018;2022-12-07T03:56:39;57.73;;;53.43;;
23802;SDS011;12082;51.786;6.018;2022-12-07T03:59:06;57.67;;;53.03;;
23802;SDS011;12082;51.786;6.018;2022-12-07T04:01:32;55.53;;;51.20;;
23802;SDS011;12082;51.786;6.018;2022-12-07T04:03:58;59.10;;;54.20;;
23802;SDS011;12082;51.786;6.018;2022-12-07T04:06:24;57.40;;;52.47;;
23802;SDS011;12082;51.786;6.018;2022-12-07T04:08:50;57.87;;;52.47;;
23802;SDS011;12082;51.786;6.018;2022-12-07T04:11:16;57.77;;;52.67;;
23802;SDS011;12082;51.786;6.018;2022-12-07T04:13:42;56.87;;;51.90;;
23802;SDS011;12082;51.786;6.018;2022-12-07T04:16:27;56.43;;;51.87;;
23802;SDS011;12082;51.786;6.018;2022-12-07T04:18:53;57.00;;;52.77;;
23802;SDS011;12082;51.786;6.018;2022-12-07T04:21:18;59.63;;;54.83;;
23802;SDS011;12082;51.786;6.018;2022-12-07T04:23:44;60.87;;;56.43;;
23802;SDS011;12082;51.786;6.018;2022-12-07T04:26:10;59.23;;;54.93;;
23802;SDS011;12082;51.786;6.018;2022-12-07T04:28:36;59.47;;;54.70;;
23802;SDS011;12082;51.786;6.018;2022-12-07T04:31:02;63.83;;;58.73;;
23802;SDS011;12082;51.786;6.018;2022-12-07T04:33:28;61.73;;;56.63;;
23802;SDS011;12082;51.786;6.018;2022-12-07T04:35:54;60.33;;;55.77;;
23802;SDS011;12082;51.786;6.018;2022-12-07T04:38:20;60.70;;;56.03;;
23802;SDS011;12082;51.786;6.018;2022-12-07T04:40:46;62.77;;;57.87;;
23802;SDS011;12082;51.786;6.018;2022-12-07T04:43:12;59.30;;;54.30;;
23802;SDS011;12082;51.786;6.018;2022-12-07T04:45:38;61.07;;;55.77;;
23802;SDS011;12082;51.786;6.018;2022-12-07T04:48:04;63.13;;;58.20;;
23802;SDS011;12082;51.786;6.018;2022-12-07T04:50:30;61.57;;;56.70;;
23802;SDS011;12082;51.786;6.018;2022-12-07T04:52:56;61.63;;;56.83;;
23802;SDS011;12082;51.786;6.018;2022-12-07T04:55:22;63.70;;;58.77;;
23802;SDS011;12082;51.786;6.018;2022-12-07T04:57:48;58.27;;;54.30;;
23802;SDS011;12082;51.786;6.018;2022-12-07T05:00:14;58.57;;;54.33;;
23802;SDS011;12082;51.786;6.018;2022-12-07T05:02:40;59.23;;;54.43;;
23802;SDS011;12082;51.786;6.018;2022-12-07T05:05:06;57.90;;;53.80;;
23802;SDS011;12082;51.786;6.018;2022-12-07T05:07:32;60.23;;;56.13;;
23802;SDS011;12082;51.786;6.018;2022-12-07T05:09:58;61.13;;;56.33;;
23802;SDS011;12082;51.786;6.018;2022-12-07T05:12:24;56.47;;;52.67;;
23802;SDS011;12082;51.786;6.018;2022-12-07T05:14:49;57.40;;;53.13;;
23802;SDS011;12082;51.786;6.018;2022-12-07T05:17:15;59.03;;;54.63;;
23802;SDS011;12082;51.786;6.018;2022-12-07T05:19:41;59.80;;;54.67;;
23802;SDS011;12082;51.786;6.018;2022-12-07T05:22:07;57.17;;;53.30;;
23802;SDS011;12082;51.786;6.018;2022-12-07T05:24:34;55.53;;;51.10;;
23802;SDS011;12082;51.786;6.018;2022-12-07T05:27:00;54.57;;;50.63;;
23802;SDS011;12082;51.786;6.018;2022-12-07T05:29:26;54.87;;;50.37;;
23802;SDS011;12082;51.786;6.018;2022-12-07T05:31:52;54.57;;;50.60;;
23802;SDS011;12082;51.786;6.018;2022-12-07T05:34:18;54.20;;;49.53;;
23802;SDS011;12082;51.786;6.018;2022-12-07T05:36:44;52.60;;;48.67;;
23802;SDS011;12082;51.786;6.018;2022-12-07T05:39:10;52.67;;;48.37;;
23802;SDS011;12082;51.786;6.018;2022-12-07T05:41:36;51.23;;;47.33;;
23802;SDS011;12082;51.786;6.018;2022-12-07T05:44:21;51.50;;;47.27;;
23802;SDS011;12082;51.786;6.018;2022-12-07T05:46:47;54.67;;;50.23;;
23802;SDS011;12082;51.786;6.018;2022-12-07T05:49:12;53.43;;;49.70;;
23802;SDS011;12082;51.786;6.018;2022-12-07T05:51:38;49.43;;;45.90;;
23802;SDS011;12082;51.786;6.018;2022-12-07T05:54:04;51.30;;;47.47;;
23802;SDS011;12082;51.786;6.018;2022-12-07T05:56:30;52.40;;;49.17;;
23802;SDS011;12082;51.786;6.018;2022-12-07T05:58:56;52.23;;;48.73;;
23802;SDS011;12082;51.786;6.018;2022-12-07T06:01:41;50.40;;;46.90;;
23802;SDS011;12082;51.786;6.018;2022-12-07T06:04:07;48.77;;;45.57;;
23802;SDS011;12082;51.786;6.018;2022-12-07T06:06:33;50.40;;;46.13;;
23802;SDS011;12082;51.786;6.018;2022-12-07T06:08:59;47.70;;;44.33;;
23802;SDS011;12082;51.786;6.018;2022-12-07T06:11:25;46.90;;;43.87;;
23802;SDS011;12082;51.786;6.018;2022-12-07T06:14:09;47.90;;;44.10;;
23802;SDS011;12082;51.786;6.018;2022-12-07T06:16:35;48.60;;;44.57;;
23802;SDS011;12082;51.786;6.018;2022-12-07T06:19:01;49.70;;;46.50;;
23802;SDS011;12082;51.786;6.018;2022-12-07T06:21:27;50.83;;;47.23;;
23802;SDS011;12082;51.786;6.018;2022-12-07T06:23:53;48.30;;;44.73;;
23802;SDS011;12082;51.786;6.018;2022-12-07T06:26:19;50.63;;;47.20;;
23802;SDS011;12082;51.786;6.018;2022-12-07T06:28:45;47.40;;;44.40;;
23802;SDS011;12082;51.786;6.018;2022-12-07T06:31:11;47.43;;;44.07;;
23802;SDS011;12082;51.786;6.018;2022-12-07T06:33:37;44.87;;;41.87;;
23802;SDS011;12082;51.786;6.018;2022-12-07T06:36:03;43.73;;;41.17;;
23802;SDS011;12082;51.786;6.018;2022-12-07T06:38:29;45.37;;;42.07;;
23802;SDS011;12082;51.786;6.018;2022-12-07T06:40:55;44.07;;;40.73;;
23802;SDS011;12082;51.786;6.018;2022-12-07T06:43:21;44.83;;;41.43;;
23802;SDS011;12082;51.786;6.018;2022-12-07T06:45:47;43.33;;;40.20;;
23802;SDS011;12082;51.786;6.018;2022-12-07T06:48:13;43.60;;;41.10;;
23802;SDS011;12082;51.786;6.018;2022-12-07T06:50:39;42.83;;;39.67;;
23802;SDS011;12082;51.786;6.018;2022-12-07T06:53:05;43.60;;;40.30;;
23802;SDS011;12082;51.786;6.018;2022-12-07T06:55:31;44.37;;;40.70;;
23802;SDS011;12082;51.786;6.018;2022-12-07T06:57:57;41.90;;;38.90;;
23802;SDS011;12082;51.786;6.018;2022-12-07T07:00:23;44.03;;;40.83;;
23802;SDS011;12082;51.786;6.018;2022-12-07T07:02:49;43.97;;;40.63;;
23802;SDS011;12082;51.786;6.018;2022-12-07T07:05:15;43.97;;;41.10;;
23802;SDS011;12082;51.786;6.018;2022-12-07T07:07:41;44.27;;;40.97;;
23802;SDS011;12082;51.786;6.018;2022-12-07T07:10:07;44.07;;;41.33;;
23802;SDS011;12082;51.786;6.018;2022-12-07T07:12:33;43.17;;;40.47;;
23802;SDS011;12082;51.786;6.018;2022-12-07T07:14:59;43.83;;;41.20;;
23802;SDS011;12082;51.786;6.018;2022-12-07T07:17:25;42.67;;;40.10;;
23802;SDS011;12082;51.786;6.018;2022-12-07T07:19:51;43.87;;;41.13;;
23802;SDS011;12082;51.786;6.018;2022-12-07T07:22:17;42.63;;;39.70;;
23802;SDS011;12082;51.786;6.018;2022-12-07T07:24:43;42.40;;;39.93;;
23802;SDS011;12082;51.786;6.018;2022-12-07T07:27:09;40.57;;;37.97;;
23802;SDS011;12082;51.786;6.018;2022-12-07T07:29:35;40.73;;;37.90;;
23802;SDS011;12082;51.786;6.018;2022-12-07T07:32:01;40.27;;;37.93;;
23802;SDS011;12082;51.786;6.018;2022-12-07T07:34:27;41.17;;;37.77;;
23802;SDS011;12082;51.786;6.018;2022-12-07T07:36:53;39.73;;;37.20;;
23802;SDS011;12082;51.786;6.018;2022-12-07T07:39:19;39.27;;;36.67;;
23802;SDS011;12082;51.786;6.018;2022-12-07T07:41:46;38.93;;;36.33;;
23802;SDS011;12082;51.786;6.018;2022-12-07T07:44:12;39.87;;;36.57;;
23802;SDS011;12082;51.786;6.018;2022-12-07T07:46:38;42.13;;;37.93;;
23802;SDS011;12082;51.786;6.018;2022-12-07T07:49:04;43.80;;;40.70;;
23802;SDS011;12082;51.786;6.018;2022-12-07T07:51:30;42.97;;;40.10;;
23802;SDS011;12082;51.786;6.018;2022-12-07T07:53:56;47.77;;;44.43;;
23802;SDS011;12082;51.786;6.018;2022-12-07T07:56:21;47.43;;;44.10;;
23802;SDS011;12082;51.786;6.018;2022-12-07T07:58:51;47.33;;;44.23;;
23802;SDS011;12082;51.786;6.018;2022-12-07T08:01:17;47.40;;;43.73;;
23802;SDS011;12082;51.786;6.018;2022-12-07T08:03:44;46.50;;;43.50;;
23802;SDS011;12082;51.786;6.018;2022-12-07T08:06:10;49.77;;;46.37;;
23802;SDS011;12082;51.786;6.018;2022-12-07T08:08:36;46.93;;;43.93;;
23802;SDS011;12082;51.786;6.018;2022-12-07T08:11:06;48.47;;;45.27;;
23802;SDS011;12082;51.786;6.018;2022-12-07T08:13:32;46.53;;;43.67;;
23802;SDS011;12082;51.786;6.018;2022-12-07T08:15:58;44.67;;;41.80;;
23802;SDS011;12082;51.786;6.018;2022-12-07T08:18:28;47.30;;;43.70;;
23802;SDS011;12082;51.786;6.018;2022-12-07T08:20:58;48.23;;;45.17;;
23802;SDS011;12082;51.786;6.018;2022-12-07T08:23:25;43.80;;;40.47;;
23802;SDS011;12082;51.786;6.018;2022-12-07T08:25:51;46.63;;;43.77;;
23802;SDS011;12082;51.786;6.018;2022-12-07T08:28:17;47.03;;;44.30;;
23802;SDS011;12082;51.786;6.018;2022-12-07T08:30:43;45.20;;;42.23;;
23802;SDS011;12082;51.786;6.018;2022-12-07T08:33:09;44.60;;;41.10;;
23802;SDS011;12082;51.786;6.018;2022-12-07T08:35:35;48.83;;;45.20;;
23802;SDS011;12082;51.786;6.018;2022-12-07T08:38:02;48.97;;;45.53;;
23802;SDS011;12082;51.786;6.018;2022-12-07T08:40:28;49.70;;;45.53;;
23802;SDS011;12082;51.786;6.018;2022-12-07T08:42:54;51.43;;;47.53;;
23802;SDS011;12082;51.786;6.018;2022-12-07T08:45:21;49.40;;;45.63;;
23802;SDS011;12082;51.786;6.018;2022-12-07T08:47:49;48.03;;;44.67;;
23802;SDS011;12082;51.786;6.018;2022-12-07T08:50:16;48.13;;;44.83;;
23802;SDS011;12082;51.786;6.018;2022-12-07T08:52:42;51.13;;;47.83;;
23802;SDS011;12082;51.786;6.018;2022-12-07T08:55:11;48.87;;;45.43;;
23802;SDS011;12082;51.786;6.018;2022-12-07T08:57:38;54.30;;;50.67;;
23802;SDS011;12082;51.786;6.018;2022-12-07T09:00:05;58.47;;;54.10;;
23802;SDS011;12082;51.786;6.018;2022-12-07T09:02:32;62.53;;;58.30;;
23802;SDS011;12082;51.786;6.018;2022-12-07T09:04:58;63.87;;;59.70;;
23802;SDS011;12082;51.786;6.018;2022-12-07T09:07:24;64.73;;;60.43;;
23802;SDS011;12082;51.786;6.018;2022-12-07T09:09:51;67.93;;;63.53;;
23802;SDS011;12082;51.786;6.018;2022-12-07T09:12:17;68.03;;;63.73;;
23802;SDS011;12082;51.786;6.018;2022-12-07T09:14:43;68.47;;;63.87;;
23802;SDS011;12082;51.786;6.018;2022-12-07T09:17:09;70.40;;;66.30;;
23802;SDS011;12082;51.786;6.018;2022-12-07T09:19:36;72.43;;;68.53;;
23802;SDS011;12082;51.786;6.018;2022-12-07T09:22:02;73.77;;;69.27;;
23802;SDS011;12082;51.786;6.018;2022-12-07T09:24:29;76.90;;;72.07;;
23802;SDS011;12082;51.786;6.018;2022-12-07T09:26:55;79.87;;;74.53;;
23802;SDS011;12082;51.786;6.018;2022-12-07T09:29:21;79.17;;;74.37;;
23802;SDS011;12082;51.786;6.018;2022-12-07T09:31:47;77.73;;;73.20;;
23802;SDS011;12082;51.786;6.018;2022-12-07T09:34:13;80.60;;;75.37;;
23802;SDS011;12082;51.786;6.018;2022-12-07T09:36:39;79.43;;;74.77;;
23802;SDS011;12082;51.786;6.018;2022-12-07T09:39:05;76.17;;;71.57;;
23802;SDS011;12082;51.786;6.018;2022-12-07T09:41:31;74.57;;;70.07;;
23802;SDS011;12082;51.786;6.018;2022-12-07T09:44:04;73.67;;;69.43;;
23802;SDS011;12082;51.786;6.018;2022-12-07T09:46:33;73.27;;;68.50;;
23802;SDS011;12082;51.786;6.018;2022-12-07T09:49:01;72.77;;;68.60;;
23802;SDS011;12082;51.786;6.018;2022-12-07T09:51:27;76.83;;;71.57;;
23802;SDS011;12082;51.786;6.018;2022-12-07T09:53:54;73.77;;;68.83;;
23802;SDS011;12082;51.786;6.018;2022-12-07T09:56:22;74.87;;;70.07;;
23802;SDS011;12082;51.786;6.018;2022-12-07T09:58:48;75.50;;;71.40;;
23802;SDS011;12082;51.786;6.018;2022-12-07T10:01:19;77.60;;;72.53;;
23802;SDS011;12082;51.786;6.018;2022-12-07T10:03:49;73.70;;;68.57;;
23802;SDS011;12082;51.786;6.018;2022-12-07T10:06:15;70.20;;;65.97;;
23802;SDS011;12082;51.786;6.018;2022-12-07T10:08:41;74.30;;;69.67;;
23802;SDS011;12082;51.786;6.018;2022-12-07T10:11:08;73.40;;;68.77;;
23802;SDS011;12082;51.786;6.018;2022-12-07T10:13:48;75.47;;;71.17;;
23802;SDS011;12082;51.786;6.018;2022-12-07T10:18:49;76.50;;;72.43;;
23802;SDS011;12082;51.786;6.018;2022-12-07T10:21:19;78.93;;;73.80;;
23802;SDS011;12082;51.786;6.018;2022-12-07T10:26:26;79.87;;;75.33;;
23802;SDS011;12082;51.786;6.018;2022-12-07T10:28:53;79.60;;;74.00;;
23802;SDS011;12082;51.786;6.018;2022-12-07T10:31:21;82.80;;;78.00;;
23802;SDS011;12082;51.786;6.018;2022-12-07T10:33:49;84.00;;;79.30;;
23802;SDS011;12082;51.786;6.018;2022-12-07T10:38:46;83.47;;;78.47;;
23802;SDS011;12082;51.786;6.018;2022-12-07T10:41:12;82.37;;;77.93;;
23802;SDS011;12082;51.786;6.018;2022-12-07T10:43:46;80.73;;;75.77;;
23802;SDS011;12082;51.786;6.018;2022-12-07T10:49:04;77.40;;;72.60;;
23802;SDS011;12082;51.786;6.018;2022-12-07T10:51:45;76.40;;;72.40;;
23802;SDS011;12082;51.786;6.018;2022-12-07T10:54:26;74.00;;;69.90;;
23802;SDS011;12082;51.786;6.018;2022-12-07T11:01:57;69.20;;;65.63;;
23802;SDS011;12082;51.786;6.018;2022-12-07T11:04:50;73.03;;;68.40;;
23802;SDS011;12082;51.786;6.018;2022-12-07T11:08:11;71.43;;;67.50;;
23802;SDS011;12082;51.786;6.018;2022-12-07T11:10:13;68.60;;;64.53;;
23802;SDS011;12082;51.786;6.018;2022-12-07T11:12:49;63.77;;;60.20;;
23802;SDS011;12082;51.786;6.018;2022-12-07T11:15:24;60.93;;;57.67;;
23802;SDS011;12082;51.786;6.018;2022-12-07T11:28:53;52.17;;;49.03;;
23802;SDS011;12082;51.786;6.018;2022-12-07T11:31:29;49.83;;;47.23;;
23802;SDS011;12082;51.786;6.018;2022-12-07T11:34:00;52.13;;;49.53;;
23802;SDS011;12082;51.786;6.018;2022-12-07T11:36:37;58.70;;;55.27;;
23802;SDS011;12082;51.786;6.018;2022-12-07T11:39:11;56.07;;;53.00;;
23802;SDS011;12082;51.786;6.018;2022-12-07T11:41:41;53.53;;;50.13;;
23802;SDS011;12082;51.786;6.018;2022-12-07T11:44:26;57.63;;;54.27;;
23802;SDS011;12082;51.786;6.018;2022-12-07T11:46:58;50.73;;;48.03;;
23802;SDS011;12082;51.786;6.018;2022-12-07T11:54:58;48.30;;;45.60;;
23802;SDS011;12082;51.786;6.018;2022-12-07T11:57:33;49.00;;;45.73;;
23802;SDS011;12082;51.786;6.018;2022-12-07T12:00:03;50.60;;;47.23;;
23802;SDS011;12082;51.786;6.018;2022-12-07T12:02:37;48.70;;;46.10;;
23802;SDS011;12082;51.786;6.018;2022-12-07T12:07:33;49.13;;;46.23;;
23802;SDS011;12082;51.786;6.018;2022-12-07T12:10:06;46.67;;;43.47;;
23802;SDS011;12082;51.786;6.018;2022-12-07T12:12:48;45.50;;;42.67;;
23802;SDS011;12082;51.786;6.018;2022-12-07T12:20:41;47.07;;;44.40;;
23802;SDS011;12082;51.786;6.018;2022-12-07T12:25:42;43.80;;;41.40;;
23802;SDS011;12082;51.786;6.018;2022-12-07T12:30:47;45.60;;;42.77;;
23802;SDS011;12082;51.786;6.018;2022-12-07T12:33:30;42.83;;;39.90;;
23802;SDS011;12082;51.786;6.018;2022-12-07T12:46:45;49.73;;;47.00;;
23802;SDS011;12082;51.786;6.018;2022-12-07T12:51:41;46.50;;;43.63;;
23802;SDS011;12082;51.786;6.018;2022-12-07T12:59:32;45.93;;;43.10;;
23802;SDS011;12082;51.786;6.018;2022-12-07T13:10:03;44.27;;;41.53;;
23802;SDS011;12082;51.786;6.018;2022-12-07T13:12:29;46.60;;;43.97;;
23802;SDS011;12082;51.786;6.018;2022-12-07T13:14:56;45.27;;;43.00;;
23802;SDS011;12082;51.786;6.018;2022-12-07T13:20:05;43.70;;;41.27;;
23802;SDS011;12082;51.786;6.018;2022-12-07T13:25:09;43.90;;;41.27;;
23802;SDS011;12082;51.786;6.018;2022-12-07T13:27:40;45.40;;;42.80;;
23802;SDS011;12082;51.786;6.018;2022-12-07T13:30:11;43.33;;;41.07;;
23802;SDS011;12082;51.786;6.018;2022-12-07T13:32:38;42.23;;;40.17;;
23802;SDS011;12082;51.786;6.018;2022-12-07T13:35:26;46.10;;;43.40;;
23802;SDS011;12082;51.786;6.018;2022-12-07T13:37:50;40.73;;;38.33;;
23802;SDS011;12082;51.786;6.018;2022-12-07T13:40:17;43.40;;;40.37;;
23802;SDS011;12082;51.786;6.018;2022-12-07T13:42:44;43.20;;;40.60;;
23802;SDS011;12082;51.786;6.018;2022-12-07T13:45:26;41.47;;;39.17;;
23802;SDS011;12082;51.786;6.018;2022-12-07T13:48:20;39.53;;;37.10;;
23802;SDS011;12082;51.786;6.018;2022-12-07T13:50:54;42.47;;;39.93;;
23802;SDS011;12082;51.786;6.018;2022-12-07T13:53:20;41.27;;;38.77;;
23802;SDS011;12082;51.786;6.018;2022-12-07T13:55:46;43.53;;;41.27;;
23802;SDS011;12082;51.786;6.018;2022-12-07T13:58:13;44.40;;;41.87;;
23802;SDS011;12082;51.786;6.018;2022-12-07T14:00:39;44.27;;;41.50;;
23802;SDS011;12082;51.786;6.018;2022-12-07T14:05:38;41.90;;;39.20;;
23802;SDS011;12082;51.786;6.018;2022-12-07T14:08:05;40.70;;;38.40;;
23802;SDS011;12082;51.786;6.018;2022-12-07T14:10:33;40.33;;;38.03;;
23802;SDS011;12082;51.786;6.018;2022-12-07T14:12:59;40.97;;;38.67;;
23802;SDS011;12082;51.786;6.018;2022-12-07T14:15:32;40.73;;;38.53;;
23802;SDS011;12082;51.786;6.018;2022-12-07T14:17:59;37.93;;;35.93;;
23802;SDS011;12082;51.786;6.018;2022-12-07T14:20:29;42.80;;;40.30;;
23802;SDS011;12082;51.786;6.018;2022-12-07T14:22:56;39.60;;;37.50;;
23802;SDS011;12082;51.786;6.018;2022-12-07T14:25:23;39.23;;;36.53;;
23802;SDS011;12082;51.786;6.018;2022-12-07T14:30:16;38.07;;;35.67;;
23802;SDS011;12082;51.786;6.018;2022-12-07T14:32:43;39.10;;;37.00;;
23802;SDS011;12082;51.786;6.018;2022-12-07T14:35:13;38.67;;;36.57;;
23802;SDS011;12082;51.786;6.018;2022-12-07T14:37:40;38.53;;;36.20;;
23802;SDS011;12082;51.786;6.018;2022-12-07T14:40:06;37.20;;;35.13;;
23802;SDS011;12082;51.786;6.018;2022-12-07T14:42:33;38.20;;;36.27;;
23802;SDS011;12082;51.786;6.018;2022-12-07T14:44:59;37.33;;;35.00;;
23802;SDS011;12082;51.786;6.018;2022-12-07T14:47:25;36.33;;;34.47;;
23802;SDS011;12082;51.786;6.018;2022-12-07T14:49:52;37.67;;;35.17;;
23802;SDS011;12082;51.786;6.018;2022-12-07T14:52:36;35.13;;;32.90;;
23802;SDS011;12082;51.786;6.018;2022-12-07T14:55:02;34.73;;;32.73;;
23802;SDS011;12082;51.786;6.018;2022-12-07T14:57:28;34.70;;;32.80;;
23802;SDS011;12082;51.786;6.018;2022-12-07T14:59:54;35.77;;;33.77;;
23802;SDS011;12082;51.786;6.018;2022-12-07T15:02:20;36.83;;;34.33;;
23802;SDS011;12082;51.786;6.018;2022-12-07T15:04:46;33.87;;;31.57;;
23802;SDS011;12082;51.786;6.018;2022-12-07T15:07:18;37.27;;;35.07;;
23802;SDS011;12082;51.786;6.018;2022-12-07T15:09:45;35.47;;;33.37;;
23802;SDS011;12082;51.786;6.018;2022-12-07T15:12:11;34.07;;;32.13;;
23802;SDS011;12082;51.786;6.018;2022-12-07T15:14:37;33.97;;;31.80;;
23802;SDS011;12082;51.786;6.018;2022-12-07T15:17:03;34.63;;;32.80;;
23802;SDS011;12082;51.786;6.018;2022-12-07T15:19:29;34.63;;;32.23;;
23802;SDS011;12082;51.786;6.018;2022-12-07T15:21:55;36.23;;;33.97;;
23802;SDS011;12082;51.786;6.018;2022-12-07T15:24:21;31.13;;;28.87;;
23802;SDS011;12082;51.786;6.018;2022-12-07T15:26:49;33.33;;;31.13;;
23802;SDS011;12082;51.786;6.018;2022-12-07T15:29:15;31.30;;;29.20;;
23802;SDS011;12082;51.786;6.018;2022-12-07T15:31:41;31.43;;;29.27;;
23802;SDS011;12082;51.786;6.018;2022-12-07T15:34:08;30.50;;;28.70;;
23802;SDS011;12082;51.786;6.018;2022-12-07T15:36:34;30.37;;;27.67;;
23802;SDS011;12082;51.786;6.018;2022-12-07T15:39:00;29.57;;;27.47;;
23802;SDS011;12082;51.786;6.018;2022-12-07T15:41:27;28.70;;;26.87;;
23802;SDS011;12082;51.786;6.018;2022-12-07T15:43:53;29.60;;;27.50;;
23802;SDS011;12082;51.786;6.018;2022-12-07T15:46:40;29.73;;;27.67;;
23802;SDS011;12082;51.786;6.018;2022-12-07T15:49:14;29.63;;;27.73;;
23802;SDS011;12082;51.786;6.018;2022-12-07T15:51:41;30.53;;;28.47;;
23802;SDS011;12082;51.786;6.018;2022-12-07T15:54:11;30.80;;;28.90;;
23802;SDS011;12082;51.786;6.018;2022-12-07T15:56:37;29.67;;;27.10;;
23802;SDS011;12082;51.786;6.018;2022-12-07T15:59:03;30.90;;;28.60;;
23802;SDS011;12082;51.786;6.018;2022-12-07T16:01:29;32.87;;;31.03;;
23802;SDS011;12082;51.786;6.018;2022-12-07T16:03:56;32.00;;;30.00;;
23802;SDS011;12082;51.786;6.018;2022-12-07T16:06:23;33.77;;;31.70;;
23802;SDS011;12082;51.786;6.018;2022-12-07T16:08:50;35.43;;;31.93;;
23802;SDS011;12082;51.786;6.018;2022-12-07T16:11:16;29.70;;;27.77;;
23802;SDS011;12082;51.786;6.018;2022-12-07T16:13:42;29.83;;;27.40;;
23802;SDS011;12082;51.786;6.018;2022-12-07T16:16:11;32.40;;;30.40;;
23802;SDS011;12082;51.786;6.018;2022-12-07T16:18:38;27.60;;;26.03;;
23802;SDS011;12082;51.786;6.018;2022-12-07T16:21:04;28.57;;;26.80;;